Quincy, IL

4:34 PM CST on January 16, 2017 (GMT -0600)
S 28th Street | | Change Station
Active Advisory: Dense Fog Advisory

Elev 610 ft 39.91 °N, 91.37 °W | Updated 6 seconds ago

Overcast
Overcast
72.9 °F
Feels Like 71 °F
N
0.0
Wind Variable Wind from East
Gusts 0.0 mph

Today
High -- | Low -- °F
--% Chance of Precip.
Yesterday
High -- | Low -- °F
Precip. -- in
Pressure 29.90 in
Visibility 0.5 miles
Clouds Mostly Cloudy 900 ft
Overcast 1300 ft
Heat Index 71 °F
Dew Point 69 °F
Humidity 87%
Rainfall 0.00 in
Snow Depth Not available.
7:24 AM 5:06 PM
Waning Gibbous, 78% visible
SPECI KUIN 162206Z AUTO 09005KT 1/2SM -RA FG BKN009 OVC013 06/06 A2990 RMK AO2 P0000 T00560056
Pressure 29.90 in
Visibility 0.5 miles
Clouds Mostly Cloudy 900 ft
Overcast 1300 ft
Heat Index 71 °F
Dew Point 69 °F
Humidity 87%
Rainfall 0.00 in
Snow Depth Not available.
7:24 AM 5:06 PM
Waning Gibbous, 78% visible
SPECI KUIN 162206Z AUTO 09005KT 1/2SM -RA FG BKN009 OVC013 06/06 A2990 RMK AO2 P0000 T00560056

Get Your Daily Forecast Email!

Thanks for signing up!

Be on the lookout for a verification email in your inbox.

You'll start receiving the daily forecast at 8 AM.

×

10-Day Weather Forecast

Almanac

Astronomy

Jan. 16, 2017 Rise Set
Actual Time
Civil Twilight
Nautical Twilight
Astronomical Twilight
Moon
Length of Visible Light
Length of Day
Tomorrow will be .
, % of the Moon is Illuminated

Today's Extremes

State Highs State Lows

Community

WunderPhotos

Upload Photos

1,962,540 photos uploaded!

WunderBlog® & News

Nearby

Air Quality

  Air Quality AQ Index Pollutant
Not available.

Snow Depth

Station Depth Elevation

Earthquake Activity

City Distance Mag. Time & Date
Minimum magnitude displayed is 2.5.

Coastal Water Temperatures

Place Temperature

Stations

Nearby Weather Stations

Station Location Temp. Windchill Dew Point Humidity Wind Precip. Elev Updated Type
                   

Watches & Warnings

Dense Fog Advisory
Issued: 3:33 PM CST Jan. 16, 2017 – National Weather Service

... Dense fog advisory in effect until 6 PM CST this evening...

The National Weather Service in Saint Louis has issued a dense
fog advisory... which is in effect until 6 PM CST this evening.

* Timing... dense fog has become more widespread across northeast
Missouri and west central Illinois late this afternoon.

* Visibilities... visibilities of one-quarter mile or less at
times are expected.

* Impacts... rapid changes in visibility will cause hazardous
driving conditions.

Precautionary/preparedness actions...

A dense fog advisory is issued when dense fog will substantially
reduce visibilities... to one-quarter mile or less... resulting in
hazardous driving conditions in many areas. Motorists are advised
to use caution and slow down... as objects on and near roadways
will be seen only at close range.



Byrd